sensor_id;sensor_type;location;lat;lon;timestamp;pressure;altitude;pressure_sealevel;temperature;humidity
55277;BME280;41136;51.478;-2.610;2023-04-27T00:01:26;100841.72;;;12.89;62.78
55277;BME280;41136;51.478;-2.610;2023-04-27T00:03:52;100842.08;;;12.66;62.32
55277;BME280;41136;51.478;-2.610;2023-04-27T00:06:17;100840.41;;;12.01;62.53
55277;BME280;41136;51.478;-2.610;2023-04-27T00:08:43;100836.96;;;11.61;63.64
55277;BME280;41136;51.478;-2.610;2023-04-27T00:11:08;100837.43;;;11.43;64.79
55277;BME280;41136;51.478;-2.610;2023-04-27T00:13:34;100836.80;;;11.47;64.48
55277;BME280;41136;51.478;-2.610;2023-04-27T00:15:59;100842.45;;;11.42;64.38
55277;BME280;41136;51.478;-2.610;2023-04-27T00:18:24;100839.25;;;11.55;64.06
55277;BME280;41136;51.478;-2.610;2023-04-27T00:20:50;100834.04;;;11.65;64.47
55277;BME280;41136;51.478;-2.610;2023-04-27T00:23:15;100832.50;;;11.34;64.52
55277;BME280;41136;51.478;-2.610;2023-04-27T00:25:40;100831.84;;;10.99;64.96
55277;BME280;41136;51.478;-2.610;2023-04-27T00:28:05;100834.76;;;11.16;65.27
55277;BME280;41136;51.478;-2.610;2023-04-27T00:30:31;100837.50;;;10.82;65.36
55277;BME280;41136;51.478;-2.610;2023-04-27T00:32:56;100836.12;;;11.04;65.22
55277;BME280;41136;51.478;-2.610;2023-04-27T00:35:22;100836.71;;;10.54;66.16
55277;BME280;41136;51.478;-2.610;2023-04-27T00:37:47;100834.41;;;10.29;66.41
55277;BME280;41136;51.478;-2.610;2023-04-27T00:40:12;100833.50;;;10.85;65.36
55277;BME280;41136;51.478;-2.610;2023-04-27T00:42:37;100833.17;;;11.07;65.36
55277;BME280;41136;51.478;-2.610;2023-04-27T00:45:04;100832.42;;;10.61;65.70
55277;BME280;41136;51.478;-2.610;2023-04-27T00:47:29;100833.89;;;11.35;64.48
55277;BME280;41136;51.478;-2.610;2023-04-27T00:49:54;100837.58;;;10.92;65.40
55277;BME280;41136;51.478;-2.610;2023-04-27T00:52:19;100836.38;;;11.01;64.76
55277;BME280;41136;51.478;-2.610;2023-04-27T00:54:44;100840.41;;;11.16;65.38
55277;BME280;41136;51.478;-2.610;2023-04-27T00:57:09;100842.86;;;10.74;65.77
55277;BME280;41136;51.478;-2.610;2023-04-27T00:59:35;100840.45;;;10.91;65.48
55277;BME280;41136;51.478;-2.610;2023-04-27T01:02:00;100843.75;;;10.74;65.37
55277;BME280;41136;51.478;-2.610;2023-04-27T01:04:25;100838.48;;;11.03;64.90
55277;BME280;41136;51.478;-2.610;2023-04-27T01:06:51;100836.11;;;10.88;65.33
55277;BME280;41136;51.478;-2.610;2023-04-27T01:09:16;100837.42;;;11.06;65.24
55277;BME280;41136;51.478;-2.610;2023-04-27T01:15:10;100829.85;;;10.85;62.08
55277;BME280;41136;51.478;-2.610;2023-04-27T01:17:35;100829.45;;;11.31;61.18
55277;BME280;41136;51.478;-2.610;2023-04-27T01:20:00;100818.39;;;11.06;61.28
55277;BME280;41136;51.478;-2.610;2023-04-27T01:22:26;100815.54;;;11.25;61.22
55277;BME280;41136;51.478;-2.610;2023-04-27T01:24:51;100812.32;;;11.70;61.40
55277;BME280;41136;51.478;-2.610;2023-04-27T01:27:16;100809.52;;;11.62;61.68
55277;BME280;41136;51.478;-2.610;2023-04-27T01:29:41;100808.77;;;11.31;62.80
55277;BME280;41136;51.478;-2.610;2023-04-27T01:32:06;100805.20;;;11.04;64.15
55277;BME280;41136;51.478;-2.610;2023-04-27T01:34:32;100801.23;;;10.98;64.22
55277;BME280;41136;51.478;-2.610;2023-04-27T01:36:57;100796.76;;;10.93;64.54
55277;BME280;41136;51.478;-2.610;2023-04-27T01:39:22;100794.51;;;10.98;64.44
55277;BME280;41136;51.478;-2.610;2023-04-27T01:41:48;100800.32;;;11.06;64.13
55277;BME280;41136;51.478;-2.610;2023-04-27T01:44:13;100807.31;;;11.16;64.61
55277;BME280;41136;51.478;-2.610;2023-04-27T01:46:38;100809.59;;;10.97;64.46
55277;BME280;41136;51.478;-2.610;2023-04-27T01:49:04;100807.05;;;11.52;63.80
55277;BME280;41136;51.478;-2.610;2023-04-27T01:51:29;100806.49;;;10.96;64.36
55277;BME280;41136;51.478;-2.610;2023-04-27T01:53:54;100802.47;;;11.29;63.63
55277;BME280;41136;51.478;-2.610;2023-04-27T01:56:19;100797.79;;;11.11;64.46
55277;BME280;41136;51.478;-2.610;2023-04-27T01:58:45;100798.96;;;10.85;64.85
55277;BME280;41136;51.478;-2.610;2023-04-27T02:01:10;100794.35;;;11.18;65.00
55277;BME280;41136;51.478;-2.610;2023-04-27T02:03:35;100791.23;;;11.14;64.77
55277;BME280;41136;51.478;-2.610;2023-04-27T02:06:00;100785.32;;;10.67;65.03
55277;BME280;41136;51.478;-2.610;2023-04-27T02:08:26;100779.74;;;10.97;65.43
55277;BME280;41136;51.478;-2.610;2023-04-27T02:10:51;100773.65;;;10.24;66.58
55277;BME280;41136;51.478;-2.610;2023-04-27T02:13:16;100775.33;;;9.98;67.97
55277;BME280;41136;51.478;-2.610;2023-04-27T02:15:41;100774.87;;;10.27;67.80
55277;BME280;41136;51.478;-2.610;2023-04-27T02:18:07;100776.96;;;10.04;68.25
55277;BME280;41136;51.478;-2.610;2023-04-27T02:20:32;100775.01;;;10.43;68.22
55277;BME280;41136;51.478;-2.610;2023-04-27T02:22:58;100768.85;;;9.98;68.64
55277;BME280;41136;51.478;-2.610;2023-04-27T02:25:23;100764.88;;;9.80;69.33
55277;BME280;41136;51.478;-2.610;2023-04-27T02:27:49;100764.13;;;9.67;70.84
55277;BME280;41136;51.478;-2.610;2023-04-27T02:30:15;100765.04;;;10.31;70.35
55277;BME280;41136;51.478;-2.610;2023-04-27T02:32:39;100765.05;;;10.27;70.45
55277;BME280;41136;51.478;-2.610;2023-04-27T02:35:05;100760.13;;;10.59;70.04
55277;BME280;41136;51.478;-2.610;2023-04-27T02:37:30;100760.23;;;10.53;69.80
55277;BME280;41136;51.478;-2.610;2023-04-27T02:39:55;100767.03;;;10.40;70.24
55277;BME280;41136;51.478;-2.610;2023-04-27T02:42:21;100763.93;;;10.05;71.21
55277;BME280;41136;51.478;-2.610;2023-04-27T02:44:47;100758.13;;;10.28;70.71
55277;BME280;41136;51.478;-2.610;2023-04-27T02:47:12;100759.73;;;10.00;71.04
55277;BME280;41136;51.478;-2.610;2023-04-27T02:49:37;100755.64;;;9.87;72.07
55277;BME280;41136;51.478;-2.610;2023-04-27T02:52:03;100754.23;;;9.97;71.91
55277;BME280;41136;51.478;-2.610;2023-04-27T02:54:28;100752.18;;;10.23;71.77
55277;BME280;41136;51.478;-2.610;2023-04-27T02:56:53;100750.67;;;9.88;72.20
55277;BME280;41136;51.478;-2.610;2023-04-27T02:59:18;100746.83;;;9.95;71.07
55277;BME280;41136;51.478;-2.610;2023-04-27T03:01:43;100746.17;;;9.99;72.50
55277;BME280;41136;51.478;-2.610;2023-04-27T03:04:09;100741.89;;;10.30;72.29
55277;BME280;41136;51.478;-2.610;2023-04-27T03:06:34;100737.48;;;10.44;71.78
55277;BME280;41136;51.478;-2.610;2023-04-27T03:09:00;100732.11;;;10.06;71.44
55277;BME280;41136;51.478;-2.610;2023-04-27T03:11:25;100730.19;;;10.01;71.38
55277;BME280;41136;51.478;-2.610;2023-04-27T03:13:50;100728.27;;;9.65;72.49
55277;BME280;41136;51.478;-2.610;2023-04-27T03:16:16;100729.09;;;10.07;72.63
55277;BME280;41136;51.478;-2.610;2023-04-27T03:18:41;100727.84;;;9.95;73.62
55277;BME280;41136;51.478;-2.610;2023-04-27T03:21:08;100719.29;;;10.41;72.55
55277;BME280;41136;51.478;-2.610;2023-04-27T03:23:32;100719.53;;;10.03;73.36
55277;BME280;41136;51.478;-2.610;2023-04-27T03:25:57;100713.85;;;10.12;73.54
55277;BME280;41136;51.478;-2.610;2023-04-27T03:28:23;100715.62;;;9.85;74.43
55277;BME280;41136;51.478;-2.610;2023-04-27T03:30:48;100711.75;;;9.51;75.08
55277;BME280;41136;51.478;-2.610;2023-04-27T03:33:14;100707.23;;;9.83;75.95
55277;BME280;41136;51.478;-2.610;2023-04-27T03:35:39;100705.43;;;9.77;76.36
55277;BME280;41136;51.478;-2.610;2023-04-27T03:38:05;100703.78;;;9.64;77.28
55277;BME280;41136;51.478;-2.610;2023-04-27T03:40:30;100700.42;;;9.56;78.15
55277;BME280;41136;51.478;-2.610;2023-04-27T03:42:56;100696.91;;;9.55;77.99
55277;BME280;41136;51.478;-2.610;2023-04-27T03:45:21;100692.39;;;9.77;77.52
55277;BME280;41136;51.478;-2.610;2023-04-27T03:47:46;100691.90;;;9.29;78.88
55277;BME280;41136;51.478;-2.610;2023-04-27T03:50:12;100689.96;;;9.10;81.02
55277;BME280;41136;51.478;-2.610;2023-04-27T03:52:37;100689.88;;;8.68;82.08
55277;BME280;41136;51.478;-2.610;2023-04-27T03:55:03;100691.14;;;8.34;84.41
55277;BME280;41136;51.478;-2.610;2023-04-27T03:57:28;100697.03;;;8.63;84.42
55277;BME280;41136;51.478;-2.610;2023-04-27T03:59:53;100694.03;;;9.24;83.96
55277;BME280;41136;51.478;-2.610;2023-04-27T04:02:18;100688.89;;;9.63;83.46
55277;BME280;41136;51.478;-2.610;2023-04-27T04:04:44;100680.78;;;9.10;84.09
55277;BME280;41136;51.478;-2.610;2023-04-27T04:07:09;100681.47;;;9.57;82.18
55277;BME280;41136;51.478;-2.610;2023-04-27T04:09:34;100680.18;;;9.39;83.51
55277;BME280;41136;51.478;-2.610;2023-04-27T04:12:00;100680.94;;;9.68;83.85
55277;BME280;41136;51.478;-2.610;2023-04-27T04:14:26;100680.06;;;9.17;84.18
55277;BME280;41136;51.478;-2.610;2023-04-27T04:16:51;100678.43;;;9.26;84.45
55277;BME280;41136;51.478;-2.610;2023-04-27T04:19:16;100676.10;;;9.45;84.29
55277;BME280;41136;51.478;-2.610;2023-04-27T04:21:41;100673.66;;;9.57;84.89
55277;BME280;41136;51.478;-2.610;2023-04-27T04:24:07;100669.68;;;9.11;84.93
55277;BME280;41136;51.478;-2.610;2023-04-27T04:26:32;100668.01;;;9.23;85.47
55277;BME280;41136;51.478;-2.610;2023-04-27T04:28:57;100667.39;;;9.13;85.65
55277;BME280;41136;51.478;-2.610;2023-04-27T04:31:23;100666.88;;;9.42;86.17
55277;BME280;41136;51.478;-2.610;2023-04-27T04:33:48;100659.26;;;9.45;84.61
55277;BME280;41136;51.478;-2.610;2023-04-27T04:36:14;100655.41;;;9.20;85.61
55277;BME280;41136;51.478;-2.610;2023-04-27T04:38:39;100654.96;;;9.02;87.13
55277;BME280;41136;51.478;-2.610;2023-04-27T04:41:05;100656.59;;;9.32;87.10
55277;BME280;41136;51.478;-2.610;2023-04-27T04:43:30;100657.45;;;9.40;88.09
55277;BME280;41136;51.478;-2.610;2023-04-27T04:45:56;100657.42;;;8.95;89.21
55277;BME280;41136;51.478;-2.610;2023-04-27T04:48:22;100651.09;;;10.05;89.05
55277;BME280;41136;51.478;-2.610;2023-04-27T04:50:47;100646.60;;;9.50;89.36
55277;BME280;41136;51.478;-2.610;2023-04-27T04:53:13;100643.11;;;9.12;90.93
55277;BME280;41136;51.478;-2.610;2023-04-27T04:55:38;100643.69;;;9.13;92.49
55277;BME280;41136;51.478;-2.610;2023-04-27T04:58:03;100640.17;;;9.25;92.19
55277;BME280;41136;51.478;-2.610;2023-04-27T05:00:29;100637.30;;;9.53;90.72
55277;BME280;41136;51.478;-2.610;2023-04-27T05:02:54;100638.08;;;9.56;91.42
55277;BME280;41136;51.478;-2.610;2023-04-27T05:05:20;100642.02;;;9.34;92.16
55277;BME280;41136;51.478;-2.610;2023-04-27T05:07:46;100648.31;;;9.67;90.71
55277;BME280;41136;51.478;-2.610;2023-04-27T05:10:12;100648.41;;;9.89;91.00
55277;BME280;41136;51.478;-2.610;2023-04-27T05:12:37;100646.76;;;10.23;90.10
55277;BME280;41136;51.478;-2.610;2023-04-27T05:15:04;100648.76;;;10.55;88.35
55277;BME280;41136;51.478;-2.610;2023-04-27T05:17:29;100645.94;;;10.20;89.25
55277;BME280;41136;51.478;-2.610;2023-04-27T05:19:54;100641.09;;;10.03;90.84
55277;BME280;41136;51.478;-2.610;2023-04-27T05:22:19;100644.03;;;9.75;93.08
55277;BME280;41136;51.478;-2.610;2023-04-27T05:24:44;100645.14;;;10.06;91.50
55277;BME280;41136;51.478;-2.610;2023-04-27T05:27:12;100646.99;;;9.90;91.76
55277;BME280;41136;51.478;-2.610;2023-04-27T05:29:35;100654.66;;;9.66;92.99
55277;BME280;41136;51.478;-2.610;2023-04-27T05:32:01;100656.92;;;9.51;95.06
55277;BME280;41136;51.478;-2.610;2023-04-27T05:34:27;100654.23;;;9.36;97.56
55277;BME280;41136;51.478;-2.610;2023-04-27T05:36:52;100647.26;;;9.46;98.87
55277;BME280;41136;51.478;-2.610;2023-04-27T05:39:17;100646.69;;;9.16;100.00
55277;BME280;41136;51.478;-2.610;2023-04-27T05:41:43;100643.94;;;9.41;100.00
55277;BME280;41136;51.478;-2.610;2023-04-27T05:44:08;100642.62;;;8.64;100.00
55277;BME280;41136;51.478;-2.610;2023-04-27T05:46:34;100638.07;;;9.24;100.00
55277;BME280;41136;51.478;-2.610;2023-04-27T05:48:59;100631.89;;;8.91;100.00
55277;BME280;41136;51.478;-2.610;2023-04-27T05:51:24;100632.51;;;8.82;100.00
55277;BME280;41136;51.478;-2.610;2023-04-27T05:53:49;100635.42;;;8.61;100.00
55277;BME280;41136;51.478;-2.610;2023-04-27T05:56:15;100638.90;;;8.88;100.00
55277;BME280;41136;51.478;-2.610;2023-04-27T05:58:40;100636.17;;;8.87;100.00
55277;BME280;41136;51.478;-2.610;2023-04-27T06:01:05;100643.27;;;9.08;100.00
55277;BME280;41136;51.478;-2.610;2023-04-27T06:03:31;100647.66;;;9.12;100.00
55277;BME280;41136;51.478;-2.610;2023-04-27T06:05:57;100647.74;;;9.19;100.00
55277;BME280;41136;51.478;-2.610;2023-04-27T06:08:22;100645.21;;;8.89;100.00
55277;BME280;41136;51.478;-2.610;2023-04-27T06:10:47;100644.35;;;9.44;100.00
55277;BME280;41136;51.478;-2.610;2023-04-27T06:13:12;100641.31;;;8.60;100.00
55277;BME280;41136;51.478;-2.610;2023-04-27T06:15:38;100635.36;;;8.96;100.00
55277;BME280;41136;51.478;-2.610;2023-04-27T06:18:04;100633.57;;;9.25;100.00
55277;BME280;41136;51.478;-2.610;2023-04-27T06:20:30;100638.46;;;9.17;100.00
55277;BME280;41136;51.478;-2.610;2023-04-27T06:22:57;100638.81;;;9.76;100.00
55277;BME280;41136;51.478;-2.610;2023-04-27T06:25:21;100631.91;;;9.54;100.00
55277;BME280;41136;51.478;-2.610;2023-04-27T06:27:46;100630.90;;;9.27;100.00
55277;BME280;41136;51.478;-2.610;2023-04-27T06:30:12;100629.55;;;9.22;100.00
55277;BME280;41136;51.478;-2.610;2023-04-27T06:32:37;100635.57;;;9.29;100.00
55277;BME280;41136;51.478;-2.610;2023-04-27T06:35:03;100632.10;;;9.68;100.00
55277;BME280;41136;51.478;-2.610;2023-04-27T06:37:28;100635.06;;;9.35;100.00
55277;BME280;41136;51.478;-2.610;2023-04-27T06:39:54;100633.63;;;9.12;100.00
55277;BME280;41136;51.478;-2.610;2023-04-27T06:42:19;100630.58;;;9.17;100.00
55277;BME280;41136;51.478;-2.610;2023-04-27T06:44:45;100633.54;;;9.28;100.00
55277;BME280;41136;51.478;-2.610;2023-04-27T06:47:10;100630.15;;;10.07;100.00
55277;BME280;41136;51.478;-2.610;2023-04-27T06:49:36;100632.00;;;10.44;100.00
55277;BME280;41136;51.478;-2.610;2023-04-27T06:52:02;100635.42;;;9.54;100.00
55277;BME280;41136;51.478;-2.610;2023-04-27T06:54:27;100632.38;;;9.61;100.00
55277;BME280;41136;51.478;-2.610;2023-04-27T06:56:53;100624.99;;;9.63;100.00
55277;BME280;41136;51.478;-2.610;2023-04-27T06:59:18;100615.45;;;9.46;100.00
55277;BME280;41136;51.478;-2.610;2023-04-27T07:01:44;100610.32;;;9.33;100.00
55277;BME280;41136;51.478;-2.610;2023-04-27T07:04:10;100614.17;;;9.15;100.00
55277;BME280;41136;51.478;-2.610;2023-04-27T07:06:35;100616.47;;;9.19;100.00
55277;BME280;41136;51.478;-2.610;2023-04-27T07:09:00;100613.46;;;9.96;100.00
55277;BME280;41136;51.478;-2.610;2023-04-27T07:11:25;100616.48;;;9.72;100.00
55277;BME280;41136;51.478;-2.610;2023-04-27T07:13:51;100623.87;;;10.04;100.00
55277;BME280;41136;51.478;-2.610;2023-04-27T07:16:16;100629.45;;;9.27;100.00
55277;BME280;41136;51.478;-2.610;2023-04-27T07:18:41;100626.57;;;9.44;100.00
55277;BME280;41136;51.478;-2.610;2023-04-27T07:21:06;100622.75;;;10.05;100.00
55277;BME280;41136;51.478;-2.610;2023-04-27T07:23:32;100626.66;;;9.16;100.00
55277;BME280;41136;51.478;-2.610;2023-04-27T07:25:57;100621.25;;;10.32;100.00
55277;BME280;41136;51.478;-2.610;2023-04-27T07:28:23;100622.10;;;10.26;100.00
55277;BME280;41136;51.478;-2.610;2023-04-27T07:30:48;100621.77;;;10.79;100.00
55277;BME280;41136;51.478;-2.610;2023-04-27T07:33:14;100622.73;;;10.62;100.00
55277;BME280;41136;51.478;-2.610;2023-04-27T07:35:39;100614.61;;;9.76;100.00
55277;BME280;41136;51.478;-2.610;2023-04-27T07:38:04;100615.58;;;9.37;100.00
55277;BME280;41136;51.478;-2.610;2023-04-27T07:40:30;100610.70;;;9.12;100.00
55277;BME280;41136;51.478;-2.610;2023-04-27T07:42:56;100608.31;;;9.71;100.00
55277;BME280;41136;51.478;-2.610;2023-04-27T07:45:22;100606.69;;;10.10;100.00
55277;BME280;41136;51.478;-2.610;2023-04-27T07:47:46;100611.82;;;9.96;100.00
55277;BME280;41136;51.478;-2.610;2023-04-27T07:50:12;100616.92;;;9.96;100.00
55277;BME280;41136;51.478;-2.610;2023-04-27T07:52:37;100618.51;;;10.33;100.00
55277;BME280;41136;51.478;-2.610;2023-04-27T07:55:03;100610.90;;;10.13;100.00
55277;BME280;41136;51.478;-2.610;2023-04-27T07:57:28;100603.91;;;10.82;100.00
55277;BME280;41136;51.478;-2.610;2023-04-27T07:59:54;100603.18;;;10.47;100.00
55277;BME280;41136;51.478;-2.610;2023-04-27T08:02:19;100601.18;;;10.40;100.00
55277;BME280;41136;51.478;-2.610;2023-04-27T08:04:44;100598.88;;;11.03;100.00
55277;BME280;41136;51.478;-2.610;2023-04-27T08:07:10;100588.72;;;10.75;100.00
55277;BME280;41136;51.478;-2.610;2023-04-27T08:09:35;100593.12;;;10.72;100.00
55277;BME280;41136;51.478;-2.610;2023-04-27T08:12:00;100592.31;;;9.84;100.00
55277;BME280;41136;51.478;-2.610;2023-04-27T08:14:26;100584.34;;;9.71;100.00
55277;BME280;41136;51.478;-2.610;2023-04-27T08:16:51;100574.54;;;9.83;100.00
55277;BME280;41136;51.478;-2.610;2023-04-27T08:19:17;100574.27;;;9.95;100.00
55277;BME280;41136;51.478;-2.610;2023-04-27T08:21:42;100576.42;;;9.78;100.00
55277;BME280;41136;51.478;-2.610;2023-04-27T08:24:07;100583.69;;;10.76;100.00
55277;BME280;41136;51.478;-2.610;2023-04-27T08:26:32;100576.83;;;10.92;100.00
55277;BME280;41136;51.478;-2.610;2023-04-27T08:28:58;100568.62;;;11.01;100.00
55277;BME280;41136;51.478;-2.610;2023-04-27T08:31:24;100565.54;;;10.59;100.00
55277;BME280;41136;51.478;-2.610;2023-04-27T08:33:49;100567.66;;;10.58;100.00
55277;BME280;41136;51.478;-2.610;2023-04-27T08:36:14;100568.20;;;11.08;100.00
55277;BME280;41136;51.478;-2.610;2023-04-27T08:38:40;100567.69;;;10.66;100.00
55277;BME280;41136;51.478;-2.610;2023-04-27T08:41:05;100566.14;;;10.44;100.00
55277;BME280;41136;51.478;-2.610;2023-04-27T08:43:33;100559.72;;;10.09;100.00
55277;BME280;41136;51.478;-2.610;2023-04-27T08:45:55;100557.96;;;10.46;100.00
55277;BME280;41136;51.478;-2.610;2023-04-27T08:48:21;100558.60;;;9.97;100.00
55277;BME280;41136;51.478;-2.610;2023-04-27T08:50:49;100556.15;;;10.23;100.00
55277;BME280;41136;51.478;-2.610;2023-04-27T08:53:16;100557.13;;;9.48;100.00
55277;BME280;41136;51.478;-2.610;2023-04-27T08:55:37;100557.43;;;10.59;100.00
55277;BME280;41136;51.478;-2.610;2023-04-27T08:58:03;100552.62;;;10.59;100.00
55277;BME280;41136;51.478;-2.610;2023-04-27T09:00:37;100545.50;;;11.55;100.00
55277;BME280;41136;51.478;-2.610;2023-04-27T09:02:54;100538.04;;;10.76;100.00
55277;BME280;41136;51.478;-2.610;2023-04-27T09:05:20;100541.96;;;10.72;100.00
55277;BME280;41136;51.478;-2.610;2023-04-27T09:10:10;100542.78;;;10.84;100.00
55277;BME280;41136;51.478;-2.610;2023-04-27T09:12:35;100541.54;;;11.17;100.00
55277;BME280;41136;51.478;-2.610;2023-04-27T09:15:02;100543.82;;;10.69;100.00
55277;BME280;41136;51.478;-2.610;2023-04-27T09:17:27;100543.82;;;10.83;100.00
55277;BME280;41136;51.478;-2.610;2023-04-27T09:20:02;100542.85;;;10.45;100.00
55277;BME280;41136;51.478;-2.610;2023-04-27T09:22:17;100540.18;;;10.62;100.00
55277;BME280;41136;51.478;-2.610;2023-04-27T09:24:49;100541.38;;;11.29;100.00
55277;BME280;41136;51.478;-2.610;2023-04-27T09:27:08;100535.66;;;11.33;100.00
55277;BME280;41136;51.478;-2.610;2023-04-27T09:29:35;100533.17;;;11.04;100.00
55277;BME280;41136;51.478;-2.610;2023-04-27T09:31:59;100534.52;;;10.79;100.00
55277;BME280;41136;51.478;-2.610;2023-04-27T09:34:24;100534.21;;;10.86;100.00
55277;BME280;41136;51.478;-2.610;2023-04-27T09:36:50;100526.94;;;11.40;100.00
55277;BME280;41136;51.478;-2.610;2023-04-27T09:39:16;100522.54;;;11.40;100.00
55277;BME280;41136;51.478;-2.610;2023-04-27T09:41:41;100518.59;;;11.30;100.00
55277;BME280;41136;51.478;-2.610;2023-04-27T09:44:07;100516.00;;;11.92;100.00
55277;BME280;41136;51.478;-2.610;2023-04-27T09:46:32;100515.67;;;11.38;100.00
55277;BME280;41136;51.478;-2.610;2023-04-27T09:48:57;100519.14;;;11.28;100.00
55277;BME280;41136;51.478;-2.610;2023-04-27T09:51:22;100517.36;;;12.18;100.00
55277;BME280;41136;51.478;-2.610;2023-04-27T09:53:51;100509.62;;;11.36;100.00
55277;BME280;41136;51.478;-2.610;2023-04-27T09:56:24;100508.79;;;11.46;100.00
55277;BME280;41136;51.478;-2.610;2023-04-27T09:58:53;100505.30;;;11.19;100.00
55277;BME280;41136;51.478;-2.610;2023-04-27T10:01:09;100512.63;;;11.30;100.00
55277;BME280;41136;51.478;-2.610;2023-04-27T10:03:31;100510.11;;;11.28;100.00
55277;BME280;41136;51.478;-2.610;2023-04-27T10:08:20;100510.11;;;11.77;100.00
55277;BME280;41136;51.478;-2.610;2023-04-27T10:10:47;100510.88;;;12.25;100.00
55277;BME280;41136;51.478;-2.610;2023-04-27T10:13:19;100508.51;;;12.49;100.00
55277;BME280;41136;51.478;-2.610;2023-04-27T10:15:39;100505.98;;;12.43;100.00
55277;BME280;41136;51.478;-2.610;2023-04-27T10:18:03;100503.62;;;12.64;100.00
55277;BME280;41136;51.478;-2.610;2023-04-27T10:20:30;100505.27;;;12.45;100.00
55277;BME280;41136;51.478;-2.610;2023-04-27T10:22:53;100504.29;;;13.22;100.00
55277;BME280;41136;51.478;-2.610;2023-04-27T10:25:20;100503.37;;;13.33;100.00
55277;BME280;41136;51.478;-2.610;2023-04-27T10:27:49;100497.25;;;12.85;100.00
55277;BME280;41136;51.478;-2.610;2023-04-27T10:30:12;100495.42;;;12.66;100.00
55277;BME280;41136;51.478;-2.610;2023-04-27T10:32:35;100489.58;;;12.89;100.00
55277;BME280;41136;51.478;-2.610;2023-04-27T10:35:02;100479.10;;;12.99;100.00
55277;BME280;41136;51.478;-2.610;2023-04-27T10:39:51;100466.01;;;12.69;100.00
55277;BME280;41136;51.478;-2.610;2023-04-27T10:42:25;100458.58;;;12.38;100.00
55277;BME280;41136;51.478;-2.610;2023-04-27T10:44:52;100462.01;;;12.73;100.00
55277;BME280;41136;51.478;-2.610;2023-04-27T10:47:12;100456.04;;;12.61;100.00
55277;BME280;41136;51.478;-2.610;2023-04-27T10:49:33;100447.71;;;11.98;100.00
55277;BME280;41136;51.478;-2.610;2023-04-27T10:51:58;100443.24;;;12.34;100.00
55277;BME280;41136;51.478;-2.610;2023-04-27T10:54:25;100436.93;;;13.12;100.00
55277;BME280;41136;51.478;-2.610;2023-04-27T10:56:49;100434.79;;;12.91;100.00
55277;BME280;41136;51.478;-2.610;2023-04-27T10:59:14;100438.87;;;12.35;100.00
55277;BME280;41136;51.478;-2.610;2023-04-27T11:01:40;100436.89;;;12.63;100.00
55277;BME280;41136;51.478;-2.610;2023-04-27T11:04:05;100439.23;;;12.32;100.00
55277;BME280;41136;51.478;-2.610;2023-04-27T11:06:31;100437.22;;;12.69;100.00
55277;BME280;41136;51.478;-2.610;2023-04-27T11:08:57;100427.40;;;12.58;100.00
55277;BME280;41136;51.478;-2.610;2023-04-27T11:11:22;100423.82;;;12.05;100.00
55277;BME280;41136;51.478;-2.610;2023-04-27T11:13:48;100417.91;;;12.64;100.00
55277;BME280;41136;51.478;-2.610;2023-04-27T11:16:14;100413.26;;;12.83;100.00
55277;BME280;41136;51.478;-2.610;2023-04-27T11:18:39;100403.24;;;13.42;100.00
55277;BME280;41136;51.478;-2.610;2023-04-27T11:21:07;100404.30;;;12.81;100.00
55277;BME280;41136;51.478;-2.610;2023-04-27T11:23:31;100401.36;;;12.74;100.00
55277;BME280;41136;51.478;-2.610;2023-04-27T11:25:56;100400.07;;;12.30;100.00
55277;BME280;41136;51.478;-2.610;2023-04-27T11:28:22;100394.38;;;11.95;100.00
55277;BME280;41136;51.478;-2.610;2023-04-27T11:30:46;100394.73;;;11.54;100.00
55277;BME280;41136;51.478;-2.610;2023-04-27T11:33:12;100394.72;;;11.96;100.00
55277;BME280;41136;51.478;-2.610;2023-04-27T11:35:37;100395.82;;;12.09;100.00
55277;BME280;41136;51.478;-2.610;2023-04-27T11:38:02;100399.29;;;11.60;100.00
55277;BME280;41136;51.478;-2.610;2023-04-27T11:40:28;100393.79;;;12.18;100.00
55277;BME280;41136;51.478;-2.610;2023-04-27T11:42:57;100386.54;;;12.19;100.00
55277;BME280;41136;51.478;-2.610;2023-04-27T11:45:24;100385.78;;;11.76;100.00
55277;BME280;41136;51.478;-2.610;2023-04-27T11:47:45;100385.24;;;11.89;100.00
55277;BME280;41136;51.478;-2.610;2023-04-27T11:50:09;100381.73;;;11.79;100.00
55277;BME280;41136;51.478;-2.610;2023-04-27T11:52:35;100384.07;;;11.98;100.00
55277;BME280;41136;51.478;-2.610;2023-04-27T11:55:01;100383.45;;;12.71;100.00
55277;BME280;41136;51.478;-2.610;2023-04-27T11:57:26;100378.58;;;12.24;100.00
55277;BME280;41136;51.478;-2.610;2023-04-27T11:59:51;100369.18;;;11.52;100.00
55277;BME280;41136;51.478;-2.610;2023-04-27T12:02:16;100364.34;;;11.99;100.00
55277;BME280;41136;51.478;-2.610;2023-04-27T12:04:42;100364.60;;;11.59;100.00
55277;BME280;41136;51.478;-2.610;2023-04-27T12:07:07;100357.10;;;12.04;100.00
55277;BME280;41136;51.478;-2.610;2023-04-27T12:09:32;100357.59;;;12.46;100.00
55277;BME280;41136;51.478;-2.610;2023-04-27T12:11:57;100360.53;;;12.78;100.00
55277;BME280;41136;51.478;-2.610;2023-04-27T12:14:22;100362.14;;;12.60;100.00
55277;BME280;41136;51.478;-2.610;2023-04-27T12:16:48;100357.40;;;12.06;100.00
55277;BME280;41136;51.478;-2.610;2023-04-27T12:19:13;100350.04;;;11.96;100.00
55277;BME280;41136;51.478;-2.610;2023-04-27T12:21:38;100345.25;;;12.58;100.00
55277;BME280;41136;51.478;-2.610;2023-04-27T12:24:03;100351.27;;;11.98;100.00
55277;BME280;41136;51.478;-2.610;2023-04-27T12:26:29;100350.93;;;11.77;100.00
55277;BME280;41136;51.478;-2.610;2023-04-27T12:28:54;100355.52;;;12.41;100.00
55277;BME280;41136;51.478;-2.610;2023-04-27T12:31:19;100361.58;;;12.73;100.00
55277;BME280;41136;51.478;-2.610;2023-04-27T12:33:45;100364.21;;;12.72;100.00
55277;BME280;41136;51.478;-2.610;2023-04-27T12:36:11;100366.06;;;12.49;100.00
55277;BME280;41136;51.478;-2.610;2023-04-27T12:38:37;100362.29;;;13.07;100.00